Time;durP1;ratioP1;P1;durP2;ratioP2;P2;SDS_P1;SDS_P2;PMS_P1;PMS_P2;Temp;Humidity;BMP_temperature;BMP_pressure;BME280_temperature;BME280_humidity;BME280_pressure;Samples;Min_cycle;Max_cycle;Signal;HPM_P1;HPM_P2
2021/01/12 00:01:13;;;;;;;175.98;85.45;;;0.40;99.60;;;;;;5096024;28;20470;-74
2021/01/12 00:03:39;;;;;;;186.60;95.00;;;0.40;99.50;;;;;;5096160;28;20031;-74
2021/01/12 00:06:05;;;;;;;192.60;93.38;;;0.50;99.60;;;;;;5096197;28;20036;-74
2021/01/12 00:08:31;;;;;;;182.98;91.75;;;0.40;99.50;;;;;;5096140;28;20020;-74
2021/01/12 00:10:57;;;;;;;194.10;94.22;;;0.50;99.50;;;;;;5096032;28;20111;-75
2021/01/12 00:13:23;;;;;;;172.18;84.57;;;0.50;99.20;;;;;;5095867;28;20065;-75
2021/01/12 00:15:49;;;;;;;196.43;93.35;;;0.50;99.30;;;;;;5095584;28;20035;-77
2021/01/12 00:18:14;;;;;;;181.43;85.38;;;0.60;99.40;;;;;;5097836;28;20028;-75
2021/01/12 00:20:40;;;;;;;183.38;85.63;;;0.50;99.30;;;;;;5097711;28;20024;-74
2021/01/12 00:23:06;;;;;;;197.15;88.93;;;0.40;99.40;;;;;;5096108;28;20458;-74
2021/01/12 00:25:31;;;;;;;346.42;167.73;;;0.50;99.70;;;;;;5096204;28;20493;-73
2021/01/12 00:27:57;;;;;;;259.65;120.13;;;0.50;99.50;;;;;;5097285;28;20024;-74
2021/01/12 00:30:23;;;;;;;304.45;140.30;;;0.60;99.60;;;;;;5095622;28;20032;-77
2021/01/12 00:32:49;;;;;;;195.65;95.10;;;0.50;99.40;;;;;;5096673;28;20024;-72
2021/01/12 00:35:15;;;;;;;260.65;123.18;;;0.60;99.60;;;;;;5095270;28;20107;-76
2021/01/12 00:37:40;;;;;;;226.15;105.03;;;0.50;99.30;;;;;;5096340;28;20036;-75
2021/01/12 00:40:07;;;;;;;216.82;95.03;;;0.60;99.50;;;;;;5095713;28;20458;-72
2021/01/12 00:42:32;;;;;;;260.55;110.40;;;0.50;99.40;;;;;;5094854;28;20039;-73
2021/01/12 00:44:58;;;;;;;254.50;112.03;;;0.50;99.50;;;;;;5097007;28;20028;-76
2021/01/12 00:47:25;;;;;;;237.32;98.50;;;0.60;99.60;;;;;;5095397;28;20032;-74
2021/01/12 00:49:52;;;;;;;246.82;104.15;;;0.60;99.50;;;;;;5095065;28;20024;-77
2021/01/12 00:52:18;;;;;;;425.73;177.63;;;0.60;99.50;;;;;;5095257;28;20024;-76
2021/01/12 00:54:43;;;;;;;323.70;124.85;;;0.40;99.70;;;;;;5096889;28;20028;-74
2021/01/12 00:57:09;;;;;;;235.90;93.30;;;0.50;99.70;;;;;;5096306;28;20032;-74
2021/01/12 00:59:35;;;;;;;253.40;104.57;;;0.50;99.60;;;;;;5096484;28;20039;-76
2021/01/12 01:02:05;;;;;;;250.85;102.35;;;0.40;99.70;;;;;;5095135;28;20028;-74
2021/01/12 01:04:31;;;;;;;314.67;120.72;;;0.50;99.80;;;;;;5095989;28;20029;-76
2021/01/12 01:06:57;;;;;;;306.08;117.28;;;0.60;99.60;;;;;;5096352;28;20359;-76
2021/01/12 01:09:22;;;;;;;247.32;106.72;;;0.60;99.40;;;;;;5093927;28;20461;-75
2021/01/12 01:11:49;;;;;;;231.73;96.38;;;0.60;99.60;;;;;;5094676;28;20024;-74
2021/01/12 01:14:16;;;;;;;306.45;121.25;;;0.60;99.50;;;;;;5095112;28;20044;-75
2021/01/12 01:16:43;;;;;;;237.77;99.43;;;0.60;99.40;;;;;;5096073;28;20111;-74
2021/01/12 01:19:10;;;;;;;197.52;82.78;;;0.60;99.30;;;;;;5094628;28;20050;-74
2021/01/12 01:21:35;;;;;;;219.88;92.47;;;0.60;99.40;;;;;;5094715;28;20056;-75
2021/01/12 01:24:01;;;;;;;253.55;98.47;;;0.50;99.30;;;;;;5094423;28;20024;-74
2021/01/12 01:26:27;;;;;;;193.60;83.72;;;0.60;99.90;;;;;;5095031;28;20063;-73
2021/01/12 01:28:53;;;;;;;325.08;122.63;;;0.60;99.50;;;;;;5095858;28;20062;-75
2021/01/12 01:31:19;;;;;;;174.02;79.40;;;0.70;99.30;;;;;;5093846;28;20078;-74
2021/01/12 01:33:47;;;;;;;176.55;78.97;;;0.60;99.10;;;;;;5094490;28;20458;-74
2021/01/12 01:36:13;;;;;;;200.52;85.82;;;0.60;99.20;;;;;;5095436;28;20036;-74
2021/01/12 01:38:39;;;;;;;198.55;83.45;;;0.70;99.30;;;;;;5094158;28;20028;-75
2021/01/12 01:41:07;;;;;;;165.90;74.32;;;0.60;99.00;;;;;;5094386;28;20035;-75
2021/01/12 01:43:34;;;;;;;247.75;107.25;;;0.60;99.10;;;;;;5095592;28;20151;-76
2021/01/12 01:46:00;;;;;;;251.30;105.25;;;0.70;99.00;;;;;;5095282;28;20028;-74
2021/01/12 01:48:26;;;;;;;292.23;121.97;;;0.70;99.00;;;;;;5094586;28;20470;-73
2021/01/12 01:50:51;;;;;;;153.15;71.13;;;0.60;99.10;;;;;;5095478;28;20081;-74
2021/01/12 01:53:17;;;;;;;128.20;63.05;;;0.70;98.90;;;;;;5093854;28;20073;-74
2021/01/12 01:55:45;;;;;;;200.60;85.45;;;0.70;98.60;;;;;;5095005;28;20116;-75
2021/01/12 01:58:10;;;;;;;169.30;75.63;;;0.70;98.70;;;;;;5093899;28;20081;-74
2021/01/12 02:00:37;;;;;;;227.73;90.63;;;0.70;98.50;;;;;;5093732;28;20020;-75
2021/01/12 02:03:22;;;;;;;409.40;164.80;;;0.50;98.80;;;;;;5093887;28;20034;-75
2021/01/12 02:05:56;;;;;;;;;;;0.40;98.80;;;;;;5094581;28;20028;-73
2021/01/12 02:08:26;;;;;;;167.25;76.55;;;0.40;99.00;;;;;;5093808;28;19910;-74
2021/01/12 02:10:57;;;;;;;196.48;86.63;;;0.40;99.30;;;;;;5093818;28;20374;-76
2021/01/12 02:13:26;;;;;;;156.88;69.68;;;0.40;99.50;;;;;;5094697;28;20109;-73
2021/01/12 02:15:56;;;;;;;187.70;88.22;;;0.40;99.30;;;;;;5094391;28;20086;-74
2021/01/12 02:18:22;;;;;;;224.27;98.55;;;0.30;99.30;;;;;;5094472;28;20027;-74
2021/01/12 02:20:49;;;;;;;226.73;104.60;;;0.40;99.50;;;;;;5093204;28;20484;-73
2021/01/12 02:23:20;;;;;;;189.90;84.82;;;0.40;99.30;;;;;;5094567;28;20050;-72
2021/01/12 02:25:50;;;;;;;198.07;92.80;;;0.50;99.40;;;;;;5093538;28;20063;-74
2021/01/12 02:28:17;;;;;;;190.65;91.80;;;0.50;99.10;;;;;;5093179;28;20028;-72
2021/01/12 02:30:43;;;;;;;204.27;97.70;;;0.60;99.20;;;;;;5093942;28;20027;-73
2021/01/12 02:33:09;;;;;;;170.27;80.10;;;0.50;99.00;;;;;;5093382;28;20051;-75
2021/01/12 02:35:44;;;;;;;164.80;79.57;;;0.50;99.00;;;;;;5093202;28;20036;-75
2021/01/12 02:38:10;;;;;;;165.60;81.05;;;0.60;99.10;;;;;;5093317;28;20114;-73
2021/01/12 02:40:36;;;;;;;155.18;77.80;;;0.50;99.10;;;;;;5094019;28;20055;-74
2021/01/12 02:43:02;;;;;;;215.57;102.63;;;0.50;98.90;;;;;;5092955;28;20454;-75
2021/01/12 02:45:28;;;;;;;314.10;143.70;;;0.40;98.90;;;;;;5093140;28;20032;-74
2021/01/12 02:47:54;;;;;;;278.52;131.75;;;0.50;99.10;;;;;;5093134;28;20539;-74
2021/01/12 02:50:20;;;;;;;200.32;96.82;;;0.50;99.10;;;;;;5093077;28;20028;-75
2021/01/12 02:52:46;;;;;;;172.52;85.05;;;0.40;98.90;;;;;;5093020;28;20024;-74
2021/01/12 02:55:13;;;;;;;162.85;75.80;;;0.50;99.30;;;;;;5094234;28;20059;-75
2021/01/12 02:57:40;;;;;;;157.65;75.53;;;0.50;99.00;;;;;;5092927;28;20385;-74
2021/01/12 03:00:10;;;;;;;145.68;69.80;;;0.60;99.00;;;;;;5092855;28;20028;-74
2021/01/12 03:02:36;;;;;;;163.77;79.35;;;0.60;99.00;;;;;;5093917;28;20419;-72
2021/01/12 03:05:04;;;;;;;159.70;80.72;;;0.60;98.50;;;;;;5092824;28;20028;-73
2021/01/12 03:07:30;;;;;;;184.55;89.47;;;0.60;98.90;;;;;;5093455;28;20354;-74
2021/01/12 03:09:56;;;;;;;144.15;69.70;;;0.60;98.70;;;;;;5092429;28;20024;-74
2021/01/12 03:12:21;;;;;;;139.77;65.97;;;0.60;98.80;;;;;;5092776;28;20052;-77
2021/01/12 03:14:47;;;;;;;150.15;72.65;;;0.50;98.90;;;;;;5092584;28;20076;-75
2021/01/12 03:17:14;;;;;;;214.32;89.82;;;0.50;98.80;;;;;;5093645;28;20408;-73
2021/01/12 03:19:41;;;;;;;166.85;73.43;;;0.50;98.90;;;;;;5092635;28;20525;-73
2021/01/12 03:22:08;;;;;;;164.02;75.97;;;0.50;98.80;;;;;;5092606;28;20027;-76
2021/01/12 03:24:34;;;;;;;169.10;80.35;;;0.50;99.10;;;;;;5093230;28;20035;-73
2021/01/12 03:26:59;;;;;;;158.00;75.10;;;0.50;98.80;;;;;;5092606;28;20028;-72
2021/01/12 03:29:25;;;;;;;136.35;67.03;;;0.50;98.90;;;;;;5092474;28;20035;-72
2021/01/12 03:31:51;;;;;;;138.57;66.95;;;0.60;99.20;;;;;;5091658;28;20024;-75
2021/01/12 03:34:17;;;;;;;144.25;67.60;;;0.60;98.90;;;;;;5093711;28;20024;-73
2021/01/12 03:36:42;;;;;;;129.30;63.58;;;0.60;98.90;;;;;;5093901;28;20523;-74
2021/01/12 03:39:09;;;;;;;149.02;71.38;;;0.60;98.50;;;;;;5092242;28;20058;-73
2021/01/12 03:41:35;;;;;;;148.68;67.45;;;0.60;98.70;;;;;;5092426;28;20028;-75
2021/01/12 03:44:01;;;;;;;147.43;68.65;;;0.50;98.70;;;;;;5091984;28;20401;-75
2021/01/12 03:46:27;;;;;;;148.68;72.10;;;0.60;98.80;;;;;;5092361;28;20035;-74
2021/01/12 03:48:53;;;;;;;136.15;66.22;;;0.50;98.80;;;;;;5092330;28;20032;-74
2021/01/12 03:51:20;;;;;;;138.48;66.43;;;0.30;98.90;;;;;;5092066;28;20020;-74
2021/01/12 03:53:46;;;;;;;137.70;66.38;;;0.20;99.20;;;;;;5092918;28;20442;-73
2021/01/12 03:56:13;;;;;;;136.77;63.03;;;0.20;99.40;;;;;;5091924;28;20084;-75
2021/01/12 03:58:40;;;;;;;136.98;66.63;;;0.20;99.70;;;;;;5093257;28;20466;-73
2021/01/12 04:01:06;;;;;;;143.70;68.78;;;0.20;99.30;;;;;;5092269;28;20490;-74
2021/01/12 04:03:32;;;;;;;135.15;62.38;;;0.20;99.40;;;;;;5093489;28;20024;-76
2021/01/12 04:06:01;;;;;;;147.43;69.15;;;0.10;99.50;;;;;;5091917;28;20028;-76
2021/01/12 04:08:27;;;;;;;137.93;62.25;;;0.10;99.50;;;;;;5092594;28;20043;-74
2021/01/12 04:10:52;;;;;;;153.07;70.97;;;0.10;99.60;;;;;;5093130;28;20465;-76
2021/01/12 04:13:18;;;;;;;160.88;72.88;;;0.10;99.80;;;;;;5092060;28;20034;-73
2021/01/12 04:15:44;;;;;;;128.65;61.28;;;0.20;99.70;;;;;;5092088;28;20055;-74
2021/01/12 04:18:09;;;;;;;138.57;63.13;;;0.20;99.60;;;;;;5092106;28;20031;-74
2021/01/12 04:20:35;;;;;;;139.07;65.13;;;0.20;99.70;;;;;;5093331;28;20028;-75
2021/01/12 04:23:01;;;;;;;150.00;67.22;;;0.20;99.60;;;;;;5092083;28;20035;-74
2021/01/12 04:25:27;;;;;;;147.55;66.43;;;0.30;99.50;;;;;;5091972;28;20035;-74
2021/01/12 04:27:52;;;;;;;166.80;76.45;;;0.40;99.50;;;;;;5091815;28;20024;-76
2021/01/12 04:30:18;;;;;;;183.50;81.88;;;0.30;99.20;;;;;;5093078;28;20082;-75
2021/01/12 04:32:44;;;;;;;155.60;69.20;;;0.30;99.20;;;;;;5091969;28;20531;-74
2021/01/12 04:35:10;;;;;;;132.68;58.50;;;0.30;99.30;;;;;;5091498;28;20032;-74
2021/01/12 04:37:36;;;;;;;130.20;55.50;;;0.30;99.20;;;;;;5092294;28;20161;-74
2021/01/12 04:40:02;;;;;;;120.53;55.83;;;0.30;99.20;;;;;;5092117;28;20472;-73
2021/01/12 04:42:32;;;;;;;129.90;58.35;;;0.30;99.40;;;;;;5092073;28;20020;-75
2021/01/12 04:44:59;;;;;;;126.57;56.60;;;0.30;99.50;;;;;;5094480;28;20024;-73
2021/01/12 04:47:25;;;;;;;145.55;66.50;;;0.20;99.50;;;;;;5095083;28;20023;-76
2021/01/12 04:49:50;;;;;;;135.25;60.75;;;0.10;99.60;;;;;;5095394;28;20113;-74
2021/01/12 04:52:16;;;;;;;140.27;66.28;;;0.20;99.70;;;;;;5095364;28;20046;-74
2021/01/12 04:54:42;;;;;;;140.57;63.67;;;0.30;99.60;;;;;;5096072;28;20024;-75
2021/01/12 04:57:12;;;;;;;162.23;74.95;;;0.20;99.50;;;;;;5095318;28;20024;-74
2021/01/12 04:59:38;;;;;;;169.00;76.90;;;0.20;99.30;;;;;;5095191;28;20028;-75
2021/01/12 05:02:05;;;;;;;173.45;83.15;;;0.20;99.50;;;;;;5093786;28;20055;-76
2021/01/12 05:04:33;;;;;;;150.98;70.80;;;0.20;99.70;;;;;;5094304;28;20025;-74
2021/01/12 05:07:00;;;;;;;148.60;66.25;;;0.20;99.50;;;;;;5093329;28;20078;-74
2021/01/12 05:09:27;;;;;;;147.93;68.20;;;0.20;99.40;;;;;;5092905;28;20032;-75
2021/01/12 05:11:56;;;;;;;158.15;72.18;;;0.20;99.50;;;;;;5093168;28;20032;-73
2021/01/12 05:14:24;;;;;;;172.93;79.53;;;0.00;99.70;;;;;;5092767;28;20410;-74
2021/01/12 05:16:53;;;;;;;203.23;92.03;;;0.00;99.80;;;;;;5093329;28;20465;-73
2021/01/12 05:19:23;;;;;;;208.00;91.97;;;0.10;99.90;;;;;;5096101;28;20059;-73
2021/01/12 05:21:50;;;;;;;171.82;78.22;;;0.00;99.90;;;;;;5094859;28;20028;-75
2021/01/12 05:24:21;;;;;;;192.07;86.80;;;0.10;99.90;;;;;;5094442;28;20024;-74
2021/01/12 05:26:48;;;;;;;176.77;80.05;;;0.10;99.90;;;;;;5096062;28;20024;-75
2021/01/12 05:29:15;;;;;;;161.63;71.13;;;0.10;99.90;;;;;;5094304;28;20035;-73
2021/01/12 05:31:45;;;;;;;189.43;82.65;;;0.20;99.90;;;;;;5094628;28;20028;-74
2021/01/12 05:34:12;;;;;;;192.93;86.82;;;0.20;99.60;;;;;;5094607;28;20028;-76
2021/01/12 05:36:49;;;;;;;181.95;82.47;;;0.20;99.70;;;;;;5094166;28;20035;-73
2021/01/12 05:39:20;;;;;;;153.52;72.20;;;0.20;99.50;;;;;;5094344;28;20059;-73
2021/01/12 05:41:47;;;;;;;204.32;97.15;;;0.30;99.60;;;;;;5094071;28;20028;-74
2021/01/12 05:44:18;;;;;;;255.90;119.57;;;0.10;99.60;;;;;;5094019;28;20027;-75
2021/01/12 05:46:45;;;;;;;354.98;171.43;;;0.00;99.70;;;;;;5094324;28;20038;-72
2021/01/12 05:49:11;;;;;;;250.13;112.65;;;0.00;99.90;;;;;;5094764;28;20028;-74
2021/01/12 05:51:45;;;;;;;234.13;93.63;;;0.10;99.90;;;;;;5093785;28;20377;-75
2021/01/12 05:54:26;;;;;;;181.98;77.47;;;0.20;99.70;;;;;;5093645;28;20503;-74
2021/01/12 05:56:59;;;;;;;225.65;100.07;;;0.30;99.70;;;;;;5093716;28;20146;-75
2021/01/12 05:59:28;;;;;;;165.52;76.38;;;0.30;99.50;;;;;;5094234;28;20035;-75
2021/01/12 06:02:06;;;;;;;304.88;142.25;;;0.30;99.40;;;;;;5094292;28;20031;-74
2021/01/12 06:04:34;;;;;;;210.82;99.82;;;0.40;99.40;;;;;;5094223;28;20032;-74
2021/01/12 06:07:01;;;;;;;259.42;112.28;;;0.40;99.40;;;;;;5094933;28;20051;-75
2021/01/12 06:09:27;;;;;;;322.85;123.20;;;0.30;99.30;;;;;;5093926;28;20032;-74
2021/01/12 06:11:55;;;;;;;242.45;100.82;;;0.30;99.50;;;;;;5093512;28;20031;-74
2021/01/12 06:14:28;;;;;;;265.08;111.88;;;0.30;99.60;;;;;;5095383;28;20044;-74
2021/01/12 06:16:55;;;;;;;215.73;92.20;;;0.30;99.40;;;;;;5093644;28;20028;-73
2021/01/12 06:19:22;;;;;;;190.65;90.47;;;0.30;99.50;;;;;;5093324;28;20031;-73
2021/01/12 06:21:54;;;;;;;146.20;72.28;;;0.40;99.40;;;;;;5094214;28;20027;-74
2021/01/12 06:24:46;;;;;;;202.43;95.00;;;0.50;99.60;;;;;;5094772;28;20020;-74
2021/01/12 06:27:18;;;;;;;217.38;107.93;;;0.50;99.10;;;;;;5079600;28;20508;-72
2021/01/12 06:29:46;;;;;;;207.02;95.60;;;0.30;99.00;;;;;;5093436;28;20443;-74
2021/01/12 06:32:21;;;;;;;235.40;102.88;;;0.30;99.30;;;;;;5094385;28;20020;-73
2021/01/12 06:34:50;;;;;;;256.65;121.40;;;0.10;99.60;;;;;;5093416;28;20416;-73
2021/01/12 06:37:18;;;;;;;202.30;93.03;;;0.10;99.70;;;;;;5093204;28;20500;-72
2021/01/12 06:39:57;;;;;;;174.05;79.78;;;0.20;99.90;;;;;;5093103;28;20032;-72
2021/01/12 06:42:28;;;;;;;171.00;80.28;;;0.40;99.80;;;;;;5093196;28;20024;-75
2021/01/12 06:44:55;;;;;;;159.95;72.05;;;0.40;99.50;;;;;;5093202;28;20354;-73
2021/01/12 06:47:26;;;;;;;192.15;93.40;;;0.40;99.20;;;;;;5092761;28;20024;-72
2021/01/12 06:50:10;;;;;;;183.55;93.78;;;0.40;99.20;;;;;;5093341;28;20480;-74
2021/01/12 06:52:44;;;;;;;184.43;85.57;;;0.50;99.40;;;;;;5094033;28;20347;-74
2021/01/12 06:55:12;;;;;;;206.57;91.13;;;0.40;99.10;;;;;;5092548;28;20469;-75
2021/01/12 06:57:38;;;;;;;217.45;95.80;;;0.30;99.30;;;;;;5092771;28;20289;-72
2021/01/12 07:00:10;;;;;;;210.38;91.57;;;0.30;99.40;;;;;;5092747;28;20080;-73
2021/01/12 07:02:36;;;;;;;249.90;110.47;;;0.30;99.60;;;;;;5092630;28;20024;-76
2021/01/12 07:05:05;;;;;;;235.73;103.00;;;0.30;99.50;;;;;;5092453;28;20162;-72
2021/01/12 07:07:38;;;;;;;222.57;93.72;;;0.40;99.90;;;;;;5091512;28;20403;-74
2021/01/12 07:10:11;;;;;;;329.42;146.07;;;0.50;99.60;;;;;;5093433;28;20034;-74
2021/01/12 07:12:38;;;;;;;255.43;115.45;;;0.50;99.30;;;;;;5092821;28;20377;-74
2021/01/12 07:15:06;;;;;;;252.18;110.60;;;0.60;99.50;;;;;;5092145;28;20048;-73
2021/01/12 07:17:40;;;;;;;278.88;128.00;;;0.60;99.50;;;;;;5093198;28;20024;-73
2021/01/12 07:20:21;;;;;;;187.17;82.97;;;0.60;99.60;;;;;;5094031;28;20129;-73
2021/01/12 07:23:03;;;;;;;225.80;103.75;;;0.50;99.30;;;;;;5092368;28;20264;-73
2021/01/12 07:25:38;;;;;;;207.77;93.38;;;0.60;99.80;;;;;;5092587;28;20350;-77
2021/01/12 07:28:13;;;;;;;235.20;106.75;;;0.70;99.40;;;;;;5092566;28;20123;-72
2021/01/12 07:30:53;;;;;;;184.90;77.22;;;0.60;99.20;;;;;;5092813;28;20028;-73
2021/01/12 07:33:27;;;;;;;230.60;92.20;;;0.80;99.20;;;;;;5092568;28;20027;-73
2021/01/12 07:35:55;;;;;;;198.85;85.82;;;0.80;99.40;;;;;;5092304;28;20090;-75
2021/01/12 07:38:24;;;;;;;213.85;96.22;;;0.70;98.90;;;;;;5092500;28;20028;-73
2021/01/12 07:40:50;;;;;;;281.13;127.95;;;0.90;99.20;;;;;;5093060;28;20464;-72
2021/01/12 07:43:18;;;;;;;271.42;121.30;;;0.80;98.90;;;;;;5091885;28;20035;-73
2021/01/12 07:45:45;;;;;;;266.95;116.40;;;0.90;98.90;;;;;;5092424;28;20381;-73
2021/01/12 07:48:12;;;;;;;248.55;106.53;;;0.80;98.70;;;;;;5092365;28;20124;-73
2021/01/12 07:50:42;;;;;;;204.98;85.05;;;0.80;99.10;;;;;;5092018;28;20035;-71
2021/01/12 07:53:08;;;;;;;237.75;101.55;;;0.70;99.10;;;;;;5092539;28;20114;-72
2021/01/12 07:55:38;;;;;;;205.32;89.32;;;0.70;99.10;;;;;;5092183;28;20070;-74
2021/01/12 07:58:04;;;;;;;215.40;91.00;;;0.70;98.90;;;;;;5092066;28;20038;-74
2021/01/12 08:00:32;;;;;;;234.38;93.25;;;0.70;99.00;;;;;;5093668;28;20389;-72
2021/01/12 08:02:58;;;;;;;226.90;94.82;;;0.70;99.10;;;;;;5093190;28;20454;-73
2021/01/12 08:05:25;;;;;;;231.20;97.85;;;0.70;99.10;;;;;;5092183;28;20028;-72
2021/01/12 08:08:10;;;;;;;323.88;136.77;;;0.70;99.30;;;;;;5091853;28;20036;-72
2021/01/12 08:10:38;;;;;;;320.17;134.63;;;0.70;99.10;;;;;;5091960;28;20024;-72
2021/01/12 08:13:14;;;;;;;253.05;110.90;;;0.80;99.20;;;;;;5092979;28;20034;-74
2021/01/12 08:15:44;;;;;;;463.05;238.05;;;0.90;99.20;;;;;;5092386;28;20039;-74
2021/01/12 08:18:15;;;;;;;503.58;270.90;;;1.00;98.90;;;;;;5093754;28;20039;-73
2021/01/12 08:20:41;;;;;;;382.80;204.35;;;1.10;98.90;;;;;;5096284;28;20377;-74
2021/01/12 08:23:16;;;;;;;291.13;151.45;;;1.10;98.60;;;;;;5095908;28;20024;-73
2021/01/12 08:25:42;;;;;;;276.55;144.05;;;1.10;98.60;;;;;;5095872;28;20051;-70
2021/01/12 08:28:09;;;;;;;258.92;138.80;;;1.30;99.00;;;;;;5095476;28;20028;-73
2021/01/12 08:30:36;;;;;;;211.27;106.72;;;1.30;98.00;;;;;;5095833;28;20024;-75
2021/01/12 08:33:26;;;;;;;190.10;92.15;;;1.30;97.90;;;;;;5095742;28;20024;-72
2021/01/12 08:36:05;;;;;;;222.07;119.53;;;1.30;97.90;;;;;;5095447;28;20458;-73
2021/01/12 08:38:33;;;;;;;215.38;92.57;;;1.10;97.90;;;;;;5096722;28;20248;-73
2021/01/12 08:41:04;;;;;;;242.95;105.13;;;1.30;98.00;;;;;;5095574;28;20028;-75
2021/01/12 08:43:30;;;;;;;375.48;170.40;;;1.30;98.30;;;;;;5095326;28;20026;-74
2021/01/12 08:46:00;;;;;;;339.25;160.90;;;1.20;97.90;;;;;;5095448;28;20032;-72
2021/01/12 08:48:26;;;;;;;292.63;142.00;;;1.20;98.20;;;;;;5095420;28;20032;-72
2021/01/12 08:50:52;;;;;;;276.15;144.48;;;1.30;98.20;;;;;;5094598;28;20035;-75
2021/01/12 08:53:18;;;;;;;250.13;120.53;;;1.30;98.10;;;;;;5128885;27;20039;-75
2021/01/12 08:55:44;;;;;;;310.38;137.70;;;1.30;97.90;;;;;;5094743;28;20059;-74
2021/01/12 08:58:11;;;;;;;219.77;95.40;;;1.30;98.10;;;;;;5095388;28;20089;-72
2021/01/12 09:00:39;;;;;;;206.18;87.75;;;1.40;97.80;;;;;;5094058;28;20469;-80
2021/01/12 09:03:07;;;;;;;209.70;85.82;;;1.40;97.80;;;;;;5091100;28;20540;-76
2021/01/12 09:05:37;;;;;;;186.52;76.78;;;1.40;97.70;;;;;;5093668;28;20024;-77
2021/01/12 09:08:17;;;;;;;203.48;86.95;;;1.40;97.90;;;;;;5091292;28;20043;-73
2021/01/12 09:10:43;;;;;;;164.60;64.65;;;1.50;97.60;;;;;;5095156;28;20497;-74
2021/01/12 09:13:10;;;;;;;179.77;71.43;;;1.40;97.80;;;;;;5094511;28;20488;-75
2021/01/12 09:15:41;;;;;;;178.52;71.47;;;1.50;97.80;;;;;;5095387;28;20028;-74
2021/01/12 09:18:19;;;;;;;195.23;82.65;;;1.50;97.40;;;;;;5094702;28;20123;-74
2021/01/12 09:20:52;;;;;;;161.23;67.63;;;1.60;97.50;;;;;;5096489;28;20065;-73
2021/01/12 09:23:18;;;;;;;166.23;70.28;;;1.40;97.20;;;;;;5094767;28;20035;-74
2021/01/12 09:25:54;;;;;;;159.73;68.60;;;1.40;97.40;;;;;;5094138;28;20040;-73
2021/01/12 09:28:31;;;;;;;193.85;84.78;;;1.50;97.50;;;;;;5095144;28;20024;-75
2021/01/12 09:31:08;;;;;;;160.88;69.70;;;1.50;97.30;;;;;;5093749;28;20028;-74
2021/01/12 09:33:37;;;;;;;189.88;85.45;;;1.50;97.20;;;;;;5095523;28;20016;-74
2021/01/12 09:36:03;;;;;;;172.85;79.97;;;1.60;97.30;;;;;;5094045;28;20039;-74
2021/01/12 09:38:49;;;;;;;153.32;67.30;;;1.70;97.40;;;;;;5093674;28;20363;-71
2021/01/12 09:41:20;;;;;;;163.20;77.35;;;1.70;97.20;;;;;;5093576;28;20024;-73
2021/01/12 09:43:46;;;;;;;156.02;77.47;;;1.60;96.90;;;;;;5093042;28;20032;-75
2021/01/12 09:46:11;;;;;;;145.65;67.88;;;1.70;97.00;;;;;;5092892;28;20024;-74
2021/01/12 09:48:38;;;;;;;151.60;72.28;;;1.80;97.00;;;;;;5093051;28;20028;-75
2021/01/12 09:51:10;;;;;;;160.32;75.97;;;1.80;96.70;;;;;;5093835;28;20046;-71
2021/01/12 09:53:36;;;;;;;141.85;66.13;;;1.70;96.70;;;;;;5093906;28;20027;-74
2021/01/12 09:56:01;;;;;;;167.18;72.95;;;1.90;97.10;;;;;;5094127;28;20028;-76
2021/01/12 09:58:27;;;;;;;168.75;74.93;;;1.80;96.50;;;;;;5094073;28;20055;-75
2021/01/12 10:00:54;;;;;;;167.05;79.85;;;1.90;96.80;;;;;;5093801;28;20058;-72
2021/01/12 10:03:20;;;;;;;265.42;113.50;;;1.90;97.10;;;;;;5095247;28;20103;-73
2021/01/12 10:09:07;;;;;;;150.93;70.88;;;1.70;96.70;;;;;;5094942;28;20054;-75
2021/01/12 10:11:33;;;;;;;134.98;70.15;;;1.60;96.80;;;;;;5095066;28;20467;-73
2021/01/12 10:13:59;;;;;;;153.60;72.05;;;1.60;96.70;;;;;;5093296;28;20047;-72
2021/01/12 10:16:25;;;;;;;184.10;84.03;;;1.60;97.00;;;;;;5093643;28;20028;-73
2021/01/12 10:18:51;;;;;;;188.68;86.93;;;1.70;97.60;;;;;;5093625;28;20028;-73
2021/01/12 10:21:17;;;;;;;124.88;53.92;;;1.60;97.00;;;;;;5094612;28;20081;-74
2021/01/12 10:23:44;;;;;;;169.00;75.45;;;1.60;96.70;;;;;;5093574;28;20024;-71
2021/01/12 10:26:17;;;;;;;207.75;89.90;;;1.60;97.40;;;;;;5093665;28;20051;-76
2021/01/12 10:28:44;;;;;;;270.47;115.43;;;1.70;97.20;;;;;;5093391;28;20036;-74
2021/01/12 10:31:11;;;;;;;176.60;76.95;;;1.70;97.10;;;;;;5093548;28;20051;-73
2021/01/12 10:33:37;;;;;;;171.48;72.10;;;1.70;97.20;;;;;;5093340;28;20035;-72
2021/01/12 10:36:03;;;;;;;177.30;77.30;;;1.60;97.10;;;;;;5093304;28;20564;-74
2021/01/12 10:38:29;;;;;;;206.40;87.30;;;1.60;97.00;;;;;;5093292;28;20028;-73
2021/01/12 10:40:55;;;;;;;227.70;101.47;;;1.70;97.30;;;;;;5092690;28;20036;-69
2021/01/12 10:43:21;;;;;;;171.90;73.97;;;1.60;97.30;;;;;;5093117;28;20074;-74
2021/01/12 10:45:46;;;;;;;155.60;66.03;;;1.50;97.10;;;;;;5093078;28;20028;-73
2021/01/12 10:48:12;;;;;;;243.80;111.03;;;1.50;97.30;;;;;;5092806;28;20031;-73
2021/01/12 10:50:38;;;;;;;128.63;59.35;;;1.50;97.40;;;;;;5094463;28;20024;-74
2021/01/12 10:53:04;;;;;;;171.52;72.97;;;1.50;97.40;;;;;;5093105;28;20034;-73
2021/01/12 10:55:30;;;;;;;150.90;68.65;;;1.50;97.40;;;;;;5092650;28;20024;-73
2021/01/12 10:57:55;;;;;;;161.40;78.03;;;1.60;97.40;;;;;;5093048;28;20081;-74
2021/01/12 11:00:21;;;;;;;146.27;67.78;;;1.50;97.00;;;;;;5093919;28;20052;-73
2021/01/12 11:02:47;;;;;;;137.00;61.20;;;1.50;97.00;;;;;;5092794;28;20110;-74
2021/01/12 11:05:13;;;;;;;140.45;65.78;;;1.50;97.20;;;;;;5092814;28;20024;-72
2021/01/12 11:07:40;;;;;;;168.88;81.00;;;1.60;97.20;;;;;;5093863;28;20039;-70
2021/01/12 11:10:07;;;;;;;147.20;68.30;;;1.60;97.30;;;;;;5092285;28;20028;-71
2021/01/12 11:12:34;;;;;;;111.10;52.35;;;1.60;97.10;;;;;;5092418;28;20119;-72
2021/01/12 11:15:00;;;;;;;133.27;59.83;;;1.50;96.90;;;;;;5092658;28;20135;-73
2021/01/12 11:17:26;;;;;;;129.32;60.35;;;1.50;97.20;;;;;;5092314;28;20046;-72
2021/01/12 11:19:52;;;;;;;162.50;77.35;;;1.50;97.30;;;;;;5092994;28;20043;-73
2021/01/12 11:22:26;;;;;;;142.57;67.78;;;1.50;97.30;;;;;;5094032;28;20056;-74
2021/01/12 11:24:53;;;;;;;160.93;81.13;;;1.60;97.60;;;;;;5092480;28;20031;-74
2021/01/12 11:27:20;;;;;;;115.80;54.60;;;1.60;97.10;;;;;;5092947;28;20092;-74
2021/01/12 11:29:45;;;;;;;139.95;67.72;;;1.50;97.30;;;;;;5092237;28;20031;-73
2021/01/12 11:32:11;;;;;;;127.07;57.72;;;1.60;97.00;;;;;;5092700;28;20028;-73
2021/01/12 11:34:38;;;;;;;107.72;49.22;;;1.60;97.00;;;;;;5092578;28;20029;-74
2021/01/12 11:37:08;;;;;;;136.25;64.70;;;1.60;96.70;;;;;;5092153;28;20424;-74
2021/01/12 11:39:35;;;;;;;155.48;76.78;;;1.50;96.80;;;;;;5092445;28;20024;-73
2021/01/12 11:42:01;;;;;;;131.10;61.42;;;1.60;97.00;;;;;;5092493;28;20052;-74
2021/01/12 11:44:26;;;;;;;129.05;57.42;;;1.70;97.20;;;;;;5093469;28;20071;-72
2021/01/12 11:46:52;;;;;;;107.80;47.70;;;1.60;96.90;;;;;;5092459;28;20035;-73
2021/01/12 11:49:18;;;;;;;130.32;63.83;;;1.50;96.80;;;;;;5092428;28;20454;-74
2021/01/12 11:51:46;;;;;;;138.07;67.53;;;1.60;96.90;;;;;;5092108;28;20028;-75
2021/01/12 11:54:13;;;;;;;127.88;57.47;;;1.60;97.10;;;;;;5095568;28;20024;-74
2021/01/12 11:56:40;;;;;;;176.00;85.45;;;1.60;97.20;;;;;;5096786;28;20077;-73
2021/01/12 11:59:07;;;;;;;143.38;67.03;;;1.60;96.80;;;;;;5096101;28;20032;-73
2021/01/12 12:01:49;;;;;;;173.30;85.93;;;1.70;96.80;;;;;;5096349;28;20035;-74
2021/01/12 12:04:16;;;;;;;131.32;63.22;;;1.70;97.20;;;;;;5096652;28;20074;-73
2021/01/12 12:06:49;;;;;;;160.02;81.10;;;1.70;97.00;;;;;;5096072;28;20039;-73
2021/01/12 12:09:15;;;;;;;146.88;67.65;;;1.70;96.80;;;;;;5096841;28;20024;-74
2021/01/12 12:11:41;;;;;;;128.00;56.22;;;1.80;96.90;;;;;;5096604;28;20382;-73
2021/01/12 12:14:09;;;;;;;124.55;58.42;;;1.80;96.90;;;;;;5096055;28;20050;-73
2021/01/12 12:16:35;;;;;;;134.13;57.95;;;1.80;96.80;;;;;;5096042;28;20032;-75
2021/01/12 12:19:02;;;;;;;124.90;55.28;;;1.80;96.50;;;;;;5095817;28;20445;-75
2021/01/12 12:21:29;;;;;;;149.45;71.53;;;1.70;96.50;;;;;;5096077;28;20117;-73
2021/01/12 12:23:55;;;;;;;151.65;67.47;;;1.70;96.80;;;;;;5095945;28;20453;-73
2021/01/12 12:26:21;;;;;;;119.60;52.45;;;1.70;96.80;;;;;;5095519;28;20119;-74
2021/01/12 12:28:46;;;;;;;112.03;49.17;;;1.70;96.70;;;;;;5095890;28;20112;-75
2021/01/12 12:31:13;;;;;;;115.50;51.33;;;1.90;97.00;;;;;;5095758;28;20457;-74
2021/01/12 12:33:39;;;;;;;114.03;48.28;;;1.90;96.70;;;;;;5095544;28;20031;-74